KCUH/CUH METAR and TAF weather

Enter ICAO airport designator
Station Type Date Time Source
KCUH METAR 2018/07/21 03:55 UTC NOAA

KCUH 210355Z AUTO 12003KT 10SM CLR 32/22 A2985 RMK AO2 T03210215


Station Type Date Time Source
KCUH Decoded METAR 2018/07/21 03:55 UTC NOAA

Cushing, Cushing Municipal Airport, OK, United States (KCUH) 35-56-59N 096-46-22W
Jul 20, 2018 - 11:55 PM EDT / 2018.07.21 0355 UTC
Wind: from the ESE (120 degrees) at 3 MPH (3 KT):0
Visibility: 10 mile(s):0
Sky conditions: clear
Temperature: 89.8 F (32.1 C)
Heat index: 95.5 F (35.3 C):1
Dew Point: 70.7 F (21.5 C)
Relative Humidity: 53%
Pressure (altimeter): 29.85 in. Hg (1010 hPa)
ob: KCUH 210355Z AUTO 12003KT 10SM CLR 32/22 A2985 RMK AO2 T03210215
cycle: 4

Station Type Date Time Source
KCUH TAF UTC NOAA

Error!


Example: see airport list